Time;durP1;ratioP1;P1;durP2;ratioP2;P2;SDS_P1;SDS_P2;PMS_P1;PMS_P2;Temp;Humidity;BMP_temperature;BMP_pressure;BME280_temperature;BME280_humidity;BME280_pressure;Samples;Min_cycle;Max_cycle;Signal;HPM_P1;HPM_P2
2021/12/02 00:01:11;;;;;;;8.80;4.80;;;;;;;-1.80;69.22;98387.25;106209;1316;139105;-63
2021/12/02 00:03:40;;;;;;;8.30;4.70;;;;;;;-1.76;68.91;98382.58;106311;1315;22515;-63
2021/12/02 00:06:10;;;;;;;11.80;5.70;;;;;;;-1.70;68.64;98386.30;106308;1316;23122;-63
2021/12/02 00:08:38;;;;;;;11.30;6.00;;;;;;;-1.67;68.44;98384.94;106218;1316;139192;-63
2021/12/02 00:11:08;;;;;;;10.60;5.70;;;;;;;-1.66;68.32;98386.59;106210;1315;22592;-63
2021/12/02 00:13:53;;;;;;;14.00;6.10;;;;;;;-1.65;68.28;98385.02;106123;1315;138281;-63
2021/12/02 00:16:38;;;;;;;11.90;4.90;;;;;;;-1.64;68.20;98383.14;106307;1313;22456;-64
2021/12/02 00:21:54;;;;;;;10.90;5.20;;;;;;;-1.62;67.99;98376.60;105949;1315;23218;-63
2021/12/02 00:24:24;;;;;;;7.90;4.30;;;;;;;-1.62;67.92;98380.14;106061;1315;22522;-63
2021/12/02 00:26:52;;;;;;;9.70;5.70;;;;;;;-1.60;67.83;98379.82;103002;1315;139927;-63
2021/12/02 00:29:21;;;;;;;9.60;4.80;;;;;;;-1.61;68.01;98376.89;101933;1316;22569;-63
2021/12/02 00:31:51;;;;;;;10.80;4.80;;;;;;;-1.63;68.13;98382.44;101748;1316;138137;-62
2021/12/02 00:34:22;;;;;;;8.80;5.00;;;;;;;-1.64;68.01;98377.92;106197;1316;23283;-63
2021/12/02 00:36:50;;;;;;;12.00;5.80;;;;;;;-1.65;68.16;98364.70;106186;1316;138547;-63
2021/12/02 00:39:19;;;;;;;7.80;5.00;;;;;;;-1.63;68.10;98363.75;106324;1316;23076;-63
2021/12/02 00:41:48;;;;;;;8.30;4.40;;;;;;;-1.62;68.14;98367.36;106281;1315;22481;-63
2021/12/02 00:44:20;;;;;;;8.40;4.80;;;;;;;-1.61;68.31;98359.27;106197;1313;137906;-63
2021/12/02 00:46:49;;;;;;;7.20;4.00;;;;;;;-1.60;68.51;98352.65;106223;1315;23599;-62
2021/12/02 00:49:18;;;;;;;6.20;3.50;;;;;;;-1.60;68.53;98348.20;106174;1316;138342;-63
2021/12/02 00:51:51;;;;;;;9.80;4.80;;;;;;;-1.58;68.62;98341.45;106222;1315;22532;-63
2021/12/02 00:54:19;;;;;;;7.80;4.80;;;;;;;-1.56;68.81;98341.58;106099;1316;22533;-63
2021/12/02 00:56:48;;;;;;;7.50;4.30;;;;;;;-1.55;68.85;98336.14;103074;1316;139058;-63
2021/12/02 00:59:16;;;;;;;8.70;4.80;;;;;;;-1.55;69.17;98324.31;101718;1316;22628;-63
2021/12/02 01:01:44;;;;;;;7.90;5.10;;;;;;;-1.55;69.26;98322.92;101709;1316;138376;-63
2021/12/02 01:04:13;;;;;;;7.30;4.50;;;;;;;-1.53;69.49;98317.16;101757;1315;22626;-63
2021/12/02 01:06:42;;;;;;;9.30;5.10;;;;;;;-1.53;69.77;98311.58;101881;1316;25402;-63
2021/12/02 01:09:10;;;;;;;10.70;6.10;;;;;;;-1.50;69.92;98308.77;106146;1316;138464;-63
2021/12/02 01:11:40;;;;;;;10.80;6.00;;;;;;;-1.49;70.20;98307.30;106206;1315;22313;-63
2021/12/02 01:14:08;;;;;;;10.80;5.30;;;;;;;-1.47;70.68;98300.76;106188;1316;138438;-63
2021/12/02 01:16:37;;;;;;;10.90;5.70;;;;;;;-1.45;70.53;98297.02;105991;1318;22484;-63
2021/12/02 01:19:05;;;;;;;10.50;5.80;;;;;;;-1.43;70.86;98297.27;106105;1316;138604;-63
2021/12/02 01:21:36;;;;;;;9.20;6.10;;;;;;;-1.44;71.33;98285.73;106267;1313;23260;-63
2021/12/02 01:24:05;;;;;;;10.10;6.00;;;;;;;-1.42;71.17;98284.94;106154;1315;24020;-63
2021/12/02 01:26:33;;;;;;;13.80;5.20;;;;;;;-1.40;71.22;98281.52;106214;1315;138133;-63
2021/12/02 01:29:02;;;;;;;7.50;5.20;;;;;;;-1.38;71.53;98279.18;106222;1315;22632;-63
2021/12/02 01:31:35;;;;;;;7.90;4.70;;;;;;;-1.37;71.52;98281.64;106201;1316;138237;-63
2021/12/02 01:34:08;;;;;;;10.30;5.50;;;;;;;-1.35;71.79;98281.06;106223;1315;23756;-63
2021/12/02 01:36:40;;;;;;;11.10;5.90;;;;;;;-1.35;71.72;98280.81;106313;1316;24447;-63
2021/12/02 01:39:08;;;;;;;9.50;4.80;;;;;;;-1.33;71.80;98278.84;106191;1316;137771;-63
2021/12/02 01:41:47;;;;;;;10.60;6.50;;;;;;;-1.33;71.82;98276.62;106309;1316;22516;-63
2021/12/02 01:44:19;;;;;;;10.80;6.10;;;;;;;-1.31;71.68;98268.77;106185;1316;138339;-63
2021/12/02 01:46:52;;;;;;;10.90;6.60;;;;;;;-1.31;72.05;98255.52;105840;1316;241529;-63
2021/12/02 01:49:23;;;;;;;8.50;5.40;;;;;;;-1.31;72.34;98261.90;106108;1315;139343;-63
2021/12/02 01:51:54;;;;;;;9.00;5.70;;;;;;;-1.29;72.16;98263.07;106274;1316;22449;-63
2021/12/02 01:54:25;;;;;;;12.90;7.90;;;;;;;-1.26;72.38;98258.07;106325;1316;22435;-63
2021/12/02 01:56:55;;;;;;;15.20;9.50;;;;;;;-1.24;72.40;98248.41;105399;1313;138445;-63
2021/12/02 01:59:33;;;;;;;13.50;10.00;;;;;;;-1.21;72.45;98242.77;106290;1313;24463;-63
2021/12/02 02:02:03;;;;;;;12.30;7.70;;;;;;;-1.19;72.41;98240.34;106022;1316;138221;-64
2021/12/02 02:04:32;;;;;;;10.70;7.20;;;;;;;-1.17;72.28;98238.88;106281;1313;22584;-64
2021/12/02 02:07:11;;;;;;;11.40;7.30;;;;;;;-1.13;72.49;98240.27;106134;1313;138587;-64
2021/12/02 02:09:39;;;;;;;9.90;6.00;;;;;;;-1.10;72.45;98242.58;106322;1313;24301;-63
2021/12/02 02:12:11;;;;;;;8.90;6.30;;;;;;;-1.08;72.52;98239.72;106292;1313;22559;-64
2021/12/02 02:14:41;;;;;;;12.00;7.00;;;;;;;-1.05;72.36;98241.77;106144;1313;138253;-63
2021/12/02 02:19:53;;;;;;;11.90;7.20;;;;;;;-1.01;72.70;98236.23;106101;1313;138523;-63
2021/12/02 02:22:23;;;;;;;12.40;7.10;;;;;;;-1.00;72.46;98240.83;106301;1313;22445;-63
2021/12/02 02:24:52;;;;;;;13.70;7.90;;;;;;;-0.97;72.80;98242.65;106193;1313;138665;-64
2021/12/02 02:27:21;;;;;;;14.10;7.50;;;;;;;-0.94;72.71;98246.17;106288;1313;22407;-64
2021/12/02 02:29:50;;;;;;;12.50;7.30;;;;;;;-0.91;72.81;98247.44;106337;1313;22429;-63
2021/12/02 02:32:24;;;;;;;12.60;8.00;;;;;;;-0.90;72.66;98243.66;106089;1316;138222;-64
2021/12/02 02:34:52;;;;;;;13.60;8.20;;;;;;;-0.87;72.65;98246.88;106317;1313;22424;-63
2021/12/02 02:37:24;;;;;;;12.60;7.60;;;;;;;-0.85;72.71;98242.77;106044;1313;138411;-63
2021/12/02 02:39:52;;;;;;;14.70;8.10;;;;;;;-0.84;72.86;98242.36;105509;1313;23475;-63
2021/12/02 02:42:23;;;;;;;13.10;7.00;;;;;;;-0.83;72.90;98240.50;105864;1313;22511;-63
2021/12/02 02:44:52;;;;;;;13.40;8.00;;;;;;;-0.82;72.90;98233.34;106199;1313;138578;-63
2021/12/02 02:47:24;;;;;;;15.70;8.90;;;;;;;-0.81;73.02;98232.38;106256;1313;22703;-63
2021/12/02 02:49:52;;;;;;;13.10;8.70;;;;;;;-0.80;73.13;98228.84;106201;1313;139042;-63
2021/12/02 02:52:20;;;;;;;15.70;9.10;;;;;;;-0.78;73.01;98230.77;106153;1316;22514;-63
2021/12/02 02:54:49;;;;;;;13.20;8.70;;;;;;;-0.74;73.16;98233.95;106264;1313;22523;-63
2021/12/02 02:57:20;;;;;;;14.80;7.80;;;;;;;-0.73;73.06;98236.09;106225;1313;138751;-63
2021/12/02 03:00:02;;;;;;;14.70;8.80;;;;;;;-0.71;73.07;98223.98;106251;1316;22409;-63
2021/12/02 03:02:44;;;;;;;14.40;8.50;;;;;;;-0.69;73.29;98213.45;106162;1313;138237;-65
2021/12/02 03:07:48;;;;;;;16.50;8.50;;;;;;;-0.66;73.29;98210.52;106175;1313;138992;-63
2021/12/02 03:10:23;;;;;;;15.80;8.40;;;;;;;-0.65;73.38;98202.80;106158;1316;22536;-64
2021/12/02 03:13:10;;;;;;;13.70;8.70;;;;;;;-0.64;73.66;98210.38;106191;1316;22398;-64
2021/12/02 03:18:26;;;;;;;12.70;8.20;;;;;;;-0.60;73.67;98212.86;106283;1313;22490;-64
2021/12/02 03:20:55;;;;;;;13.70;8.60;;;;;;;-0.59;73.82;98217.34;106158;1314;138929;-64
2021/12/02 03:23:24;;;;;;;16.80;10.90;;;;;;;-0.59;73.71;98206.44;106211;1316;22449;-64
2021/12/02 03:25:52;;;;;;;22.50;12.70;;;;;;;-0.58;73.77;98198.59;106169;1313;139360;-64
2021/12/02 03:28:20;;;;;;;18.70;10.90;;;;;;;-0.56;73.73;98196.80;106212;1315;22540;-64
2021/12/02 03:30:50;;;;;;;17.10;10.60;;;;;;;-0.55;73.93;98185.55;106238;1313;22499;-64
2021/12/02 03:33:19;;;;;;;15.50;9.90;;;;;;;-0.54;73.97;98182.05;106112;1315;139063;-63
2021/12/02 03:35:48;;;;;;;14.60;9.30;;;;;;;-0.53;73.93;98179.73;105224;1316;23467;-63
2021/12/02 03:38:29;;;;;;;17.40;10.40;;;;;;;-0.52;74.05;98180.10;106079;1314;138323;-63
2021/12/02 03:40:58;;;;;;;16.70;10.30;;;;;;;-0.51;73.76;98172.27;106237;1313;22461;-63
2021/12/02 03:43:27;;;;;;;16.60;10.00;;;;;;;-0.50;73.92;98174.49;106040;1316;139978;-63
2021/12/02 03:45:57;;;;;;;19.90;10.80;;;;;;;-0.49;74.09;98165.52;105437;1313;23244;-63
2021/12/02 03:48:24;;;;;;;17.20;9.60;;;;;;;-0.46;74.07;98162.69;106281;1316;22404;-63
2021/12/02 03:50:53;;;;;;;14.70;8.80;;;;;;;-0.43;74.08;98155.27;106165;1316;139506;-63
2021/12/02 03:53:21;;;;;;;21.40;11.10;;;;;;;-0.42;74.07;98149.70;106285;1316;22468;-63
2021/12/02 03:55:49;;;;;;;17.10;10.60;;;;;;;-0.41;74.26;98148.21;106181;1316;138498;-63
2021/12/02 03:58:19;;;;;;;14.50;9.40;;;;;;;-0.41;74.10;98143.69;106249;1316;22622;-63
2021/12/02 04:00:47;;;;;;;19.30;10.80;;;;;;;-0.39;74.01;98139.59;106275;1316;23372;-63
2021/12/02 04:03:15;;;;;;;15.80;9.50;;;;;;;-0.38;73.98;98134.67;106181;1316;139433;-63
2021/12/02 04:05:44;;;;;;;16.90;10.70;;;;;;;-0.35;73.93;98135.77;106232;1315;23407;-63
2021/12/02 04:08:12;;;;;;;16.50;10.30;;;;;;;-0.33;73.90;98129.63;106160;1313;138616;-63
2021/12/02 04:10:42;;;;;;;15.00;9.50;;;;;;;-0.32;73.93;98126.77;106320;1313;22552;-63
2021/12/02 04:13:21;;;;;;;14.40;8.90;;;;;;;-0.30;73.86;98128.07;106248;1316;22400;-63
2021/12/02 04:15:50;;;;;;;18.90;10.50;;;;;;;-0.28;73.93;98124.94;106047;1315;137913;-62
2021/12/02 04:18:19;;;;;;;16.80;9.30;;;;;;;-0.26;73.70;98126.39;106253;1316;22437;-63
2021/12/02 04:20:47;;;;;;;17.90;10.40;;;;;;;-0.24;74.04;98119.88;106155;1316;138039;-63
2021/12/02 04:23:15;;;;;;;18.40;10.70;;;;;;;-0.23;73.69;98114.52;106227;1315;23097;-63
2021/12/02 04:25:44;;;;;;;19.20;10.30;;;;;;;-0.20;73.90;98121.94;106082;1315;138240;-64
2021/12/02 04:28:12;;;;;;;15.40;9.90;;;;;;;-0.18;73.86;98115.70;106250;1316;22486;-63
2021/12/02 04:30:40;;;;;;;22.00;11.80;;;;;;;-0.16;74.07;98112.11;106154;1316;22605;-64
2021/12/02 04:33:08;;;;;;;22.60;13.40;;;;;;;-0.14;74.00;98111.77;105618;1316;138169;-64
2021/12/02 04:35:37;;;;;;;14.70;10.50;;;;;;;-0.11;73.72;98107.77;106260;1316;22452;-64
2021/12/02 04:38:05;;;;;;;15.00;10.40;;;;;;;-0.09;73.71;98100.84;106109;1315;139934;-64
2021/12/02 04:40:35;;;;;;;14.70;9.90;;;;;;;-0.08;73.62;98099.38;106172;1316;22591;-64
2021/12/02 04:43:04;;;;;;;16.90;10.50;;;;;;;-0.06;73.87;98105.10;106269;1313;22494;-64
2021/12/02 04:45:33;;;;;;;17.70;10.00;;;;;;;-0.05;73.88;98097.46;105355;1316;138531;-64
2021/12/02 04:48:01;;;;;;;18.10;11.10;;;;;;;-0.02;73.76;98105.88;106300;1313;22526;-63
2021/12/02 04:50:30;;;;;;;15.70;10.20;;;;;;;0.01;73.76;98107.16;106189;1316;138108;-64
2021/12/02 04:52:58;;;;;;;17.30;10.10;;;;;;;0.04;73.77;98111.92;106284;1316;22488;-64
2021/12/02 04:55:26;;;;;;;16.50;11.20;;;;;;;0.07;73.82;98112.14;106278;1316;22644;-64
2021/12/02 04:57:55;;;;;;;15.70;9.20;;;;;;;0.08;73.45;98113.04;106167;1316;140834;-63
2021/12/02 05:00:23;;;;;;;20.20;11.00;;;;;;;0.10;73.53;98108.19;106188;1315;23212;-64
2021/12/02 05:02:51;;;;;;;16.70;10.60;;;;;;;0.14;73.44;98090.13;106105;1315;138921;-63
2021/12/02 05:05:20;;;;;;;18.20;11.00;;;;;;;0.17;73.44;98090.95;105987;1316;25437;-63
2021/12/02 05:07:49;;;;;;;19.30;11.70;;;;;;;0.20;73.45;98081.61;101724;1316;138581;-63
2021/12/02 05:10:17;;;;;;;16.60;10.70;;;;;;;0.23;73.43;98079.92;101850;1315;25457;-63
2021/12/02 05:12:45;;;;;;;15.90;10.40;;;;;;;0.24;73.53;98070.96;101920;1315;25409;-62
2021/12/02 05:15:14;;;;;;;21.10;12.00;;;;;;;0.28;73.41;98075.41;106213;1316;138544;-63
2021/12/02 05:17:42;;;;;;;32.60;14.60;;;;;;;0.30;73.43;98068.95;106090;1316;22456;-64
2021/12/02 05:20:10;;;;;;;20.60;11.50;;;;;;;0.32;73.34;98073.67;106131;1315;138119;-63
2021/12/02 05:22:39;;;;;;;21.50;12.10;;;;;;;0.34;73.46;98072.87;106287;1313;23326;-63
2021/12/02 05:25:08;;;;;;;20.90;12.30;;;;;;;0.37;73.37;98072.05;106276;1315;24561;-63
2021/12/02 05:27:38;;;;;;;19.90;11.30;;;;;;;0.39;73.39;98074.98;106135;1315;138547;-63
2021/12/02 05:30:07;;;;;;;14.40;9.60;;;;;;;0.42;73.18;98075.70;106258;1316;23152;-63
2021/12/02 05:32:35;;;;;;;15.00;10.10;;;;;;;0.44;73.39;98074.80;106153;1316;138261;-63
2021/12/02 05:35:06;;;;;;;14.30;9.80;;;;;;;0.46;73.35;98070.43;106280;1313;22560;-64
2021/12/02 05:37:38;;;;;;;14.20;10.20;;;;;;;0.48;73.24;98067.65;105386;1316;140690;-63
2021/12/02 05:40:06;;;;;;;19.30;11.50;;;;;;;0.49;73.21;98069.15;105918;1315;22537;-64
2021/12/02 05:42:35;;;;;;;21.20;13.90;;;;;;;0.54;73.31;98073.55;106279;1313;22618;-64
2021/12/02 05:45:03;;;;;;;20.40;12.70;;;;;;;0.57;73.09;98080.29;106178;1313;138385;-64
2021/12/02 05:49:36;;;;;;;26.20;13.20;;;;;;;0.65;73.26;98081.94;99122;1351;545944;-63
2021/12/02 05:52:04;;;;;;;27.60;14.10;;;;;;;0.67;73.16;98081.55;100611;1328;26757;-63
2021/12/02 05:54:32;;;;;;;25.00;14.60;;;;;;;0.69;73.12;98088.11;101181;1324;22614;-63
2021/12/02 05:57:00;;;;;;;23.10;14.00;;;;;;;0.72;72.96;98089.89;105166;1325;137925;-63
2021/12/02 05:59:28;;;;;;;21.10;14.00;;;;;;;0.74;72.96;98087.81;105407;1325;22483;-63
2021/12/02 06:01:57;;;;;;;16.40;10.60;;;;;;;0.76;73.17;98088.41;105296;1325;137580;-63
2021/12/02 06:04:25;;;;;;;18.20;10.80;;;;;;;0.77;73.08;98094.94;105556;1319;149040;-63
2021/12/02 06:06:53;;;;;;;15.30;10.90;;;;;;;0.79;73.17;98095.83;105726;1322;22602;-64
2021/12/02 06:09:22;;;;;;;18.40;9.50;;;;;;;0.80;73.29;98091.20;105564;1322;140040;-63
2021/12/02 06:11:54;;;;;;;17.10;10.80;;;;;;;0.82;73.30;98085.48;105690;1322;23197;-64
2021/12/02 06:14:22;;;;;;;17.80;11.10;;;;;;;0.83;73.33;98078.58;105538;1322;138319;-64
2021/12/02 06:16:50;;;;;;;18.90;11.00;;;;;;;0.85;73.22;98077.52;105639;1322;22534;-64
2021/12/02 06:19:18;;;;;;;17.60;11.30;;;;;;;0.86;73.15;98076.09;105650;1322;22507;-64
2021/12/02 06:21:48;;;;;;;18.60;10.60;;;;;;;0.88;73.26;98077.56;105596;1322;137791;-64
2021/12/02 06:24:16;;;;;;;24.80;11.10;;;;;;;0.91;73.31;98083.42;105641;1322;23320;-63
2021/12/02 06:26:44;;;;;;;22.80;11.60;;;;;;;0.92;73.42;98083.08;105596;1322;138235;-64
2021/12/02 06:29:12;;;;;;;24.40;13.00;;;;;;;0.96;73.04;98081.62;104600;1322;23080;-64
2021/12/02 06:31:40;;;;;;;18.00;10.20;;;;;;;0.97;73.43;98083.25;105550;1322;138168;-63
2021/12/02 06:34:07;;;;;;;22.00;12.90;;;;;;;0.98;73.29;98084.06;105709;1322;23114;-64
2021/12/02 06:36:37;;;;;;;18.50;10.80;;;;;;;1.00;73.24;98083.19;105691;1322;22476;-63
2021/12/02 06:39:13;;;;;;;17.40;10.10;;;;;;;1.03;73.31;98083.02;105577;1322;139147;-63
2021/12/02 06:41:41;;;;;;;18.40;10.50;;;;;;;1.04;73.38;98080.31;105677;1322;24507;-64
2021/12/02 06:44:09;;;;;;;19.30;9.50;;;;;;;1.07;73.43;98081.55;105168;1319;138405;-64
2021/12/02 06:46:37;;;;;;;18.50;10.10;;;;;;;1.09;73.22;98081.55;106065;1319;22395;-63
2021/12/02 06:49:06;;;;;;;15.20;9.10;;;;;;;1.12;73.36;98078.30;106079;1318;22418;-63
2021/12/02 06:51:34;;;;;;;16.60;9.50;;;;;;;1.14;73.42;98075.66;105966;1319;141294;-63
2021/12/02 06:54:04;;;;;;;16.80;9.40;;;;;;;1.17;73.30;98074.39;106005;1319;23071;-64
2021/12/02 06:56:51;;;;;;;12.80;8.60;;;;;;;1.22;73.28;98070.48;106002;1319;137921;-64
2021/12/02 06:59:19;;;;;;;15.00;9.30;;;;;;;1.24;73.46;98069.20;106088;1319;23030;-64
2021/12/02 07:01:47;;;;;;;11.20;8.50;;;;;;;1.25;73.48;98071.21;105941;1319;138194;-64
2021/12/02 07:04:15;;;;;;;14.00;9.50;;;;;;;1.25;73.31;98067.56;106157;1316;22497;-63
2021/12/02 07:06:44;;;;;;;15.90;8.80;;;;;;;1.28;73.34;98063.82;106122;1315;22524;-63
2021/12/02 07:09:12;;;;;;;17.10;9.50;;;;;;;1.30;73.47;98070.57;106068;1315;137499;-64
2021/12/02 07:11:41;;;;;;;13.60;8.60;;;;;;;1.33;73.61;98074.02;106169;1316;22422;-64
2021/12/02 07:14:14;;;;;;;15.70;9.40;;;;;;;1.37;73.52;98069.75;106010;1315;138166;-63
2021/12/02 07:16:42;;;;;;;16.00;9.90;;;;;;;1.41;73.47;98060.84;106126;1313;22552;-69
2021/12/02 07:19:14;;;;;;;12.80;8.70;;;;;;;1.45;73.50;98058.65;106153;1315;22407;-70
2021/12/02 07:21:42;;;;;;;13.70;8.60;;;;;;;1.47;73.45;98062.66;106050;1316;137532;-69
2021/12/02 07:24:13;;;;;;;20.30;10.40;;;;;;;1.49;73.23;98057.23;106177;1316;22427;-69
2021/12/02 07:27:01;;;;;;;15.30;8.60;;;;;;;1.50;73.34;98065.00;105978;1315;138997;-71
2021/12/02 07:29:31;;;;;;;13.00;8.80;;;;;;;1.53;73.27;98061.86;105101;1316;23386;-70
2021/12/02 07:32:03;;;;;;;16.60;9.40;;;;;;;1.56;73.52;98063.00;105985;1319;138069;-70
2021/12/02 07:34:34;;;;;;;18.30;8.90;;;;;;;1.60;73.42;98063.74;106161;1316;23298;-71
2021/12/02 07:37:02;;;;;;;18.80;9.70;;;;;;;1.64;73.68;98068.61;106183;1315;22453;-69
2021/12/02 07:39:30;;;;;;;19.40;10.40;;;;;;;1.68;73.69;98064.41;106073;1315;137511;-70
2021/12/02 07:42:06;;;;;;;17.90;9.50;;;;;;;1.74;73.84;98061.85;106189;1316;22543;-70
2021/12/02 07:44:35;;;;;;;15.10;8.90;;;;;;;1.79;73.52;98063.83;106061;1315;137908;-70
2021/12/02 07:47:03;;;;;;;15.00;9.20;;;;;;;1.83;73.45;98068.01;105980;1318;22485;-64
2021/12/02 07:49:31;;;;;;;15.00;9.80;;;;;;;1.85;73.40;98066.15;106017;1316;138092;-64
2021/12/02 07:52:00;;;;;;;16.40;10.20;;;;;;;1.86;73.34;98069.48;106125;1316;22428;-64
2021/12/02 07:54:31;;;;;;;15.00;9.30;;;;;;;1.89;73.26;98073.11;105714;1316;22613;-63
2021/12/02 07:57:00;;;;;;;14.10;8.70;;;;;;;1.91;73.39;98074.77;106034;1318;137501;-64
2021/12/02 07:59:29;;;;;;;15.00;9.10;;;;;;;1.93;73.23;98076.10;106165;1316;23378;-64
2021/12/02 08:02:00;;;;;;;13.90;8.20;;;;;;;1.96;73.48;98080.95;105986;1318;137639;-64
2021/12/02 08:04:29;;;;;;;15.10;9.50;;;;;;;1.99;73.35;98083.91;106120;1316;22412;-64
2021/12/02 08:06:57;;;;;;;19.30;10.20;;;;;;;2.01;73.47;98078.79;106110;1316;23233;-64
2021/12/02 08:09:25;;;;;;;17.30;9.70;;;;;;;2.04;73.42;98073.99;106115;1315;137812;-64
2021/12/02 08:11:54;;;;;;;17.20;9.40;;;;;;;2.07;73.42;98076.48;106170;1315;23295;-64
2021/12/02 08:14:22;;;;;;;15.30;9.40;;;;;;;2.10;73.34;98082.84;106021;1315;137664;-63
2021/12/02 08:16:50;;;;;;;15.30;9.60;;;;;;;2.14;73.28;98087.70;106187;1315;22400;-64
2021/12/02 08:19:19;;;;;;;16.50;9.90;;;;;;;2.16;73.21;98086.23;106164;1315;23602;-64
2021/12/02 08:21:47;;;;;;;15.90;10.10;;;;;;;2.19;73.35;98080.45;105989;1319;138295;-64
2021/12/02 08:24:16;;;;;;;14.20;9.70;;;;;;;2.23;73.35;98083.98;106204;1315;22386;-64
2021/12/02 08:26:44;;;;;;;16.90;9.60;;;;;;;2.25;73.19;98087.90;105591;1316;137452;-64
2021/12/02 08:29:12;;;;;;;16.60;8.50;;;;;;;2.28;73.51;98089.25;106008;1316;23300;-64
2021/12/02 08:31:40;;;;;;;11.90;8.00;;;;;;;2.32;73.43;98089.85;106048;1316;138773;-64
2021/12/02 08:34:08;;;;;;;14.10;8.30;;;;;;;2.36;73.46;98087.83;105960;1316;22447;-64
2021/12/02 08:36:51;;;;;;;12.90;8.70;;;;;;;2.38;73.35;98082.98;105146;1323;23245;-64
2021/12/02 08:39:24;;;;;;;13.80;8.70;;;;;;;2.40;73.36;98083.04;106023;1318;137886;-64
2021/12/02 08:41:54;;;;;;;13.00;8.80;;;;;;;2.43;73.42;98079.00;106106;1315;22396;-64
2021/12/02 08:44:24;;;;;;;13.80;8.30;;;;;;;2.45;73.40;98080.59;106102;1315;137627;-64
2021/12/02 08:46:53;;;;;;;13.40;8.60;;;;;;;2.49;73.40;98079.42;106141;1315;22469;-64
2021/12/02 08:49:22;;;;;;;14.00;8.60;;;;;;;2.54;73.45;98081.45;106073;1318;22660;-64
2021/12/02 08:51:51;;;;;;;12.50;8.50;;;;;;;2.56;73.61;98076.80;106089;1316;138169;-63
2021/12/02 08:54:19;;;;;;;16.00;8.90;;;;;;;2.58;73.61;98063.15;106126;1318;22482;-63
2021/12/02 08:56:48;;;;;;;15.50;9.00;;;;;;;2.60;73.85;98063.97;106121;1316;137691;-64
2021/12/02 08:59:17;;;;;;;12.10;8.20;;;;;;;2.63;73.78;98058.21;106166;1316;22385;-64
2021/12/02 09:01:45;;;;;;;12.80;8.40;;;;;;;2.64;73.81;98062.86;106033;1316;139456;-64
2021/12/02 09:04:13;;;;;;;14.20;8.70;;;;;;;2.65;73.78;98067.73;106193;1316;22529;-64
2021/12/02 09:06:41;;;;;;;18.10;8.50;;;;;;;2.66;73.76;98061.77;106160;1315;22583;-64
2021/12/02 09:09:09;;;;;;;14.60;8.30;;;;;;;2.68;73.82;98062.50;106028;1315;140783;-64
2021/12/02 09:11:37;;;;;;;14.40;8.70;;;;;;;2.70;73.96;98060.06;106096;1318;23494;-64
2021/12/02 09:14:06;;;;;;;12.80;8.40;;;;;;;2.73;74.02;98057.43;106066;1316;138778;-64
2021/12/02 09:16:36;;;;;;;15.70;8.80;;;;;;;2.75;74.10;98048.15;106161;1316;22515;-64
2021/12/02 09:19:05;;;;;;;17.50;8.80;;;;;;;2.77;74.11;98053.29;105255;1316;23295;-63
2021/12/02 09:21:33;;;;;;;17.90;8.60;;;;;;;2.79;74.08;98048.98;105388;1315;137659;-64
2021/12/02 09:24:01;;;;;;;14.50;8.70;;;;;;;2.83;74.11;98050.55;106165;1316;22452;-64
2021/12/02 09:26:29;;;;;;;20.00;8.90;;;;;;;2.86;74.18;98047.80;106005;1318;139071;-70
2021/12/02 09:28:58;;;;;;;12.30;8.20;;;;;;;2.89;74.33;98040.67;106139;1318;23168;-70
2021/12/02 09:31:26;;;;;;;14.50;8.60;;;;;;;2.90;74.22;98039.77;106171;1316;22481;-70
2021/12/02 09:33:55;;;;;;;14.70;8.50;;;;;;;2.92;74.30;98040.88;106032;1316;137848;-70
2021/12/02 09:36:23;;;;;;;16.00;8.70;;;;;;;2.93;74.40;98044.84;106129;1316;22515;-70
2021/12/02 09:38:51;;;;;;;13.40;9.10;;;;;;;2.95;74.50;98045.69;105827;1316;138421;-69
2021/12/02 09:41:19;;;;;;;14.30;8.60;;;;;;;2.97;74.40;98043.20;106086;1319;22502;-70
2021/12/02 09:43:47;;;;;;;14.40;8.20;;;;;;;3.00;74.57;98041.58;106045;1316;137856;-70
2021/12/02 09:46:15;;;;;;;14.20;8.60;;;;;;;3.03;74.63;98038.54;106123;1318;22465;-70
2021/12/02 09:48:44;;;;;;;13.90;8.60;;;;;;;3.06;74.71;98035.26;105809;1316;22426;-69
2021/12/02 09:51:17;;;;;;;12.70;8.60;;;;;;;3.10;74.71;98035.52;106036;1316;137622;-71
2021/12/02 09:54:09;;;;;;;15.20;9.20;;;;;;;3.14;74.64;98033.50;106116;1316;22471;-70
2021/12/02 09:56:39;;;;;;;608.10;79.00;;;;;;;3.18;74.59;98025.69;103527;1316;138445;-63
2021/12/02 09:59:10;;;;;;;52.80;12.90;;;;;;;3.22;74.67;98023.48;101845;1316;24333;-62
2021/12/02 10:01:51;;;;;;;22.30;9.90;;;;;;;3.26;74.65;98017.09;101777;1319;138606;-63
2021/12/02 10:04:21;;;;;;;17.70;10.30;;;;;;;3.28;74.88;98017.07;106118;1316;23745;-64
2021/12/02 10:06:49;;;;;;;17.40;10.90;;;;;;;3.30;74.67;98018.05;106060;1316;22408;-64
2021/12/02 10:09:38;;;;;;;16.60;9.20;;;;;;;3.34;74.80;98022.66;106083;1316;138274;-64
2021/12/02 10:12:18;;;;;;;15.50;9.30;;;;;;;3.35;74.72;98015.00;106209;1316;23474;-64
2021/12/02 10:14:53;;;;;;;16.40;8.40;;;;;;;3.37;74.58;98019.13;106022;1316;137881;-64
2021/12/02 10:22:46;;;;;;;14.50;9.20;;;;;;;3.41;74.47;98018.75;105982;1316;22649;-64
2021/12/02 10:25:28;;;;;;;15.20;9.60;;;;;;;3.43;74.55;98018.90;105934;1319;22529;-63
2021/12/02 10:28:04;;;;;;;15.00;9.10;;;;;;;3.45;74.43;98004.92;106056;1315;137870;-63
2021/12/02 10:30:32;;;;;;;23.40;9.50;;;;;;;3.48;74.64;98003.96;106042;1316;22691;-62
2021/12/02 10:33:00;;;;;;;18.50;9.50;;;;;;;3.50;74.64;98005.98;102206;1315;139269;-60
2021/12/02 10:35:46;;;;;;;17.00;10.00;;;;;;;3.53;74.56;98005.27;101606;1318;22643;-61
2021/12/02 10:38:33;;;;;;;15.10;9.40;;;;;;;3.56;74.46;98005.86;105929;1318;138300;-61
2021/12/02 10:41:05;;;;;;;15.80;10.30;;;;;;;3.58;74.69;98003.00;106077;1318;22545;-61
2021/12/02 10:43:34;;;;;;;16.80;10.60;;;;;;;3.61;74.56;98003.61;104851;1319;22428;-61
2021/12/02 10:46:18;;;;;;;17.00;10.40;;;;;;;3.65;74.74;98004.29;105947;1318;139596;-61
2021/12/02 10:48:51;;;;;;;18.60;10.60;;;;;;;3.69;74.66;98010.17;106013;1318;22450;-61
2021/12/02 10:51:44;;;;;;;19.00;10.30;;;;;;;3.71;74.41;98011.61;105915;1318;139039;-61
2021/12/02 10:54:15;;;;;;;20.20;11.00;;;;;;;3.75;74.45;98008.89;105845;1321;22452;-60
2021/12/02 10:56:48;;;;;;;21.90;11.00;;;;;;;3.77;74.54;98003.41;102920;1321;138938;-61
2021/12/02 10:59:29;;;;;;;22.00;11.60;;;;;;;3.80;74.45;97994.30;101637;1318;24401;-61
2021/12/02 11:02:01;;;;;;;20.00;11.30;;;;;;;3.83;74.54;97990.58;101574;1319;140688;-61
2021/12/02 11:04:36;;;;;;;20.10;10.50;;;;;;;3.85;74.15;97986.39;106026;1318;22795;-61
2021/12/02 11:07:10;;;;;;;18.90;10.50;;;;;;;3.87;74.32;97992.51;105335;1318;22416;-61
2021/12/02 11:09:39;;;;;;;21.80;10.60;;;;;;;3.90;74.26;97984.83;105936;1318;139105;-63
2021/12/02 11:12:08;;;;;;;20.90;11.40;;;;;;;3.91;74.22;97984.02;106008;1318;22432;-61
2021/12/02 11:14:57;;;;;;;24.60;12.40;;;;;;;3.95;74.02;97980.56;105906;1318;138348;-61
2021/12/02 11:17:33;;;;;;;25.70;11.80;;;;;;;3.98;74.13;97977.05;106031;1318;22423;-61
2021/12/02 11:20:18;;;;;;;19.90;11.60;;;;;;;4.01;74.12;97977.73;105890;1318;139231;-61
2021/12/02 11:22:48;;;;;;;18.40;11.20;;;;;;;4.05;73.75;97978.41;105627;1318;22411;-61
2021/12/02 11:25:16;;;;;;;21.80;12.40;;;;;;;4.07;74.06;97981.39;105840;1318;23433;-61
2021/12/02 11:27:46;;;;;;;23.20;12.40;;;;;;;4.09;73.82;97977.96;105799;1318;138487;-61
2021/12/02 11:30:21;;;;;;;19.40;11.60;;;;;;;4.11;74.10;97976.52;105998;1318;22541;-62
2021/12/02 11:32:59;;;;;;;21.00;10.70;;;;;;;4.11;73.80;97972.65;105823;1318;140459;-61
2021/12/02 11:35:54;;;;;;;24.20;12.70;;;;;;;4.13;73.73;97965.46;106029;1318;23331;-61
2021/12/02 11:38:24;;;;;;;21.50;11.90;;;;;;;4.16;73.99;97963.81;105923;1318;138585;-61
2021/12/02 11:40:57;;;;;;;21.30;11.30;;;;;;;4.18;73.50;97964.70;105949;1319;23081;-61
2021/12/02 11:43:27;;;;;;;18.80;11.10;;;;;;;4.20;73.51;97971.18;106008;1318;23453;-61
2021/12/02 11:45:56;;;;;;;16.70;10.30;;;;;;;4.22;73.71;97971.41;105917;1318;137794;-61
2021/12/02 11:48:28;;;;;;;17.70;10.10;;;;;;;4.23;73.50;97974.55;106032;1318;22414;-61
2021/12/02 11:51:03;;;;;;;19.70;11.40;;;;;;;4.25;73.56;97974.79;105933;1318;139320;-62